Afton, Iowa
Current Conditions -  °F | °C
As of 7:35 PM on Wednesday 22 Oct 2014 (Local Time) from KCSQ Reporting Station
Clear Clear  
Wind Chill: 57°   Ceiling: Unl
Heat Index: 57°   Visibility: 10mi
Dew Point: 48°   Wind: 9mph
Humidity: 72%   Direction: 140°SE
Pressure: 30.1"   Gusts: NA
Location:  41.03°N, 94.2°W
Report Text: KCSQ 230035Z AUTO 14008KT 10SM CLR 14/09 A3010 RMK AO2
Loading
Personal Weather Stations






























Interactive Weather Map
Tropical Storm Tracking
New forecast layout! Learn more

10-Day Weather Forecast

Advertisements
Track Severe Weather on mobile